createdAt,value
2023-05-04T00:00:30.217Z,7.57
2023-05-04T00:01:30.465Z,7.52
2023-05-04T00:02:30.284Z,7.49
2023-05-04T00:03:30.375Z,7.46
2023-05-04T00:04:30.242Z,7.40
2023-05-04T00:05:30.158Z,7.37
2023-05-04T00:06:30.160Z,7.34
2023-05-04T00:07:30.153Z,7.32
2023-05-04T00:08:30.136Z,7.30
2023-05-04T00:09:30.114Z,7.25
2023-05-04T00:10:30.157Z,7.24
2023-05-04T00:11:30.141Z,7.32
2023-05-04T00:12:30.135Z,7.39
2023-05-04T00:13:30.137Z,7.37
2023-05-04T00:14:30.088Z,7.32
2023-05-04T00:15:30.065Z,7.30
2023-05-04T00:16:30.108Z,7.28
2023-05-04T00:17:30.053Z,7.28
2023-05-04T00:18:30.025Z,7.28
2023-05-04T00:19:30.156Z,7.34
2023-05-04T00:20:30.026Z,7.31
2023-05-04T00:21:29.984Z,7.30
2023-05-04T00:22:29.973Z,7.28
2023-05-04T00:23:29.959Z,7.27
2023-05-04T00:24:29.952Z,7.24
2023-05-04T00:25:29.954Z,7.21
2023-05-04T00:26:29.955Z,7.20
2023-05-04T00:27:29.925Z,7.20
2023-05-04T00:28:29.947Z,7.15
2023-05-04T00:29:29.912Z,7.12
2023-05-04T00:30:29.899Z,7.10
2023-05-04T00:31:29.952Z,7.09
2023-05-04T00:32:29.989Z,7.07
2023-05-04T00:33:29.854Z,7.05
2023-05-04T00:34:29.869Z,7.05
2023-05-04T00:35:29.857Z,7.05
2023-05-04T00:36:29.824Z,7.03
2023-05-04T00:37:29.806Z,7.06
2023-05-04T00:38:29.811Z,7.05
2023-05-04T00:39:29.790Z,7.03
2023-05-04T00:40:29.797Z,7.02
2023-05-04T00:41:29.778Z,7.03
2023-05-04T00:42:29.807Z,7.03
2023-05-04T00:43:29.752Z,7.05
2023-05-04T00:44:29.745Z,7.03
2023-05-04T00:45:29.783Z,7.05
2023-05-04T00:46:29.757Z,7.03
2023-05-04T00:47:29.753Z,7.05
2023-05-04T00:48:29.694Z,7.05
2023-05-04T00:49:29.734Z,7.03
2023-05-04T00:50:29.717Z,7.05
2023-05-04T00:51:29.661Z,7.06
2023-05-04T00:52:29.663Z,7.07
2023-05-04T00:53:29.635Z,7.06
2023-05-04T00:54:29.650Z,7.03
2023-05-04T00:55:29.668Z,6.99
2023-05-04T00:56:29.602Z,6.94
2023-05-04T00:57:29.597Z,6.89
2023-05-04T00:58:29.581Z,6.88
2023-05-04T00:59:29.574Z,6.87
2023-05-04T01:00:29.574Z,6.85
2023-05-04T01:01:29.634Z,6.85
2023-05-04T01:02:29.576Z,6.81
2023-05-04T01:03:29.573Z,6.80
2023-05-04T01:04:29.519Z,6.77
2023-05-04T01:05:29.528Z,6.76
2023-05-04T01:06:29.506Z,6.76
2023-05-04T01:07:29.492Z,6.74
2023-05-04T01:08:29.475Z,6.76
2023-05-04T01:09:29.465Z,6.77
2023-05-04T01:10:29.655Z,6.74
2023-05-04T01:11:29.436Z,6.71
2023-05-04T01:12:29.524Z,6.69
2023-05-04T01:13:29.471Z,6.66
2023-05-04T01:14:29.410Z,6.62
2023-05-04T01:15:29.405Z,6.62
2023-05-04T01:16:29.442Z,6.59
2023-05-04T01:17:29.437Z,6.56
2023-05-04T01:18:29.360Z,6.54
2023-05-04T01:19:29.366Z,6.51
2023-05-04T01:20:29.414Z,6.52
2023-05-04T01:21:29.343Z,6.46
2023-05-04T01:22:29.345Z,6.43
2023-05-04T01:23:29.314Z,6.40
2023-05-04T01:24:29.331Z,6.40
2023-05-04T01:25:29.312Z,6.40
2023-05-04T01:26:29.295Z,6.40
2023-05-04T01:27:29.334Z,6.40
2023-05-04T01:28:29.289Z,6.38
2023-05-04T01:29:29.266Z,6.40
2023-05-04T01:30:29.239Z,6.38
2023-05-04T01:31:29.234Z,6.38
2023-05-04T01:32:29.269Z,6.37
2023-05-04T01:33:29.212Z,6.36
2023-05-04T01:34:29.207Z,6.36
2023-05-04T01:35:29.201Z,6.36
2023-05-04T01:36:29.163Z,6.33
2023-05-04T01:37:29.158Z,6.33
2023-05-04T01:38:29.164Z,6.31
2023-05-04T01:39:29.151Z,6.31
2023-05-04T01:40:29.165Z,6.31
2023-05-04T01:41:29.144Z,6.30
2023-05-04T01:42:29.154Z,6.28
2023-05-04T01:43:29.111Z,6.27
2023-05-04T01:44:29.083Z,6.27
2023-05-04T01:45:29.081Z,6.28
2023-05-04T01:46:29.117Z,6.27
2023-05-04T01:48:29.044Z,6.22
2023-05-04T01:49:29.042Z,6.18
2023-05-04T01:50:29.028Z,6.19
2023-05-04T01:51:29.001Z,6.17
2023-05-04T01:52:28.983Z,6.15
2023-05-04T01:53:28.997Z,6.15
2023-05-04T01:54:28.968Z,6.15
2023-05-04T01:55:28.997Z,6.17
2023-05-04T01:56:28.973Z,6.27
2023-05-04T01:57:28.961Z,6.30
2023-05-04T01:58:28.925Z,6.36
2023-05-04T01:59:28.929Z,6.41
2023-05-04T02:00:28.908Z,6.46
2023-05-04T02:01:28.931Z,6.46
2023-05-04T02:02:29.006Z,6.48
2023-05-04T02:03:29.048Z,6.54
2023-05-04T02:04:28.872Z,6.61
2023-05-04T02:05:28.849Z,6.71
2023-05-04T02:06:28.829Z,6.77
2023-05-04T02:07:28.860Z,6.74
2023-05-04T02:08:28.821Z,6.79
2023-05-04T02:09:28.828Z,6.81
2023-05-04T02:10:28.790Z,6.80
2023-05-04T02:11:28.814Z,6.80
2023-05-04T02:12:28.796Z,6.79
2023-05-04T02:13:28.761Z,6.73
2023-05-04T02:14:28.765Z,6.67
2023-05-04T02:15:28.749Z,6.61
2023-05-04T02:16:28.798Z,6.56
2023-05-04T02:17:28.752Z,6.51
2023-05-04T02:18:29.673Z,6.46
2023-05-04T02:19:28.718Z,6.40
2023-05-04T02:20:28.683Z,6.34
2023-05-04T02:21:28.682Z,6.33
2023-05-04T02:22:28.668Z,6.30
2023-05-04T02:23:28.761Z,6.27
2023-05-04T02:24:28.655Z,6.21
2023-05-04T02:25:28.643Z,6.17
2023-05-04T02:26:28.642Z,6.15
2023-05-04T02:27:28.616Z,6.09
2023-05-04T02:28:28.602Z,6.06
2023-05-04T02:29:28.604Z,6.03
2023-05-04T02:30:28.579Z,6.00
2023-05-04T02:31:28.572Z,5.96
2023-05-04T02:32:28.617Z,5.94
2023-05-04T02:33:28.559Z,5.94
2023-05-04T02:34:28.555Z,5.91
2023-05-04T02:35:28.538Z,5.86
2023-05-04T02:36:28.502Z,5.83
2023-05-04T02:37:28.514Z,5.82
2023-05-04T02:38:28.490Z,5.81
2023-05-04T02:39:28.641Z,5.78
2023-05-04T02:40:28.485Z,5.75
2023-05-04T02:41:28.474Z,5.71
2023-05-04T02:42:28.480Z,5.71
2023-05-04T02:43:28.443Z,5.67
2023-05-04T02:44:28.445Z,5.65
2023-05-04T02:45:28.446Z,5.65
2023-05-04T02:46:28.445Z,5.65
2023-05-04T02:47:28.444Z,5.63
2023-05-04T02:48:28.402Z,5.65
2023-05-04T02:49:28.396Z,5.67
2023-05-04T02:50:28.400Z,5.64
2023-05-04T02:51:28.356Z,5.63
2023-05-04T02:52:28.331Z,5.67
2023-05-04T02:53:28.407Z,5.71
2023-05-04T02:54:28.320Z,5.68
2023-05-04T02:55:28.314Z,5.71
2023-05-04T02:56:28.298Z,5.75
2023-05-04T02:57:28.280Z,5.75
2023-05-04T02:58:28.278Z,5.74
2023-05-04T02:59:28.290Z,5.74
2023-05-04T03:00:28.255Z,5.71
2023-05-04T03:01:28.330Z,5.65
2023-05-04T03:02:28.245Z,5.64
2023-05-04T03:03:28.234Z,5.63
2023-05-04T03:04:28.268Z,5.61
2023-05-04T03:05:28.222Z,5.58
2023-05-04T03:06:28.199Z,5.61
2023-05-04T03:07:28.174Z,5.60
2023-05-04T03:08:28.160Z,5.65
2023-05-04T03:09:28.160Z,5.68
2023-05-04T03:10:28.153Z,5.67
2023-05-04T03:11:28.153Z,5.65
2023-05-04T03:12:28.154Z,5.65
2023-05-04T03:13:28.112Z,5.67
2023-05-04T03:14:28.125Z,5.67
2023-05-04T03:15:28.086Z,5.68
2023-05-04T03:16:28.159Z,5.67
2023-05-04T03:17:28.120Z,5.76
2023-05-04T03:18:28.048Z,5.89
2023-05-04T03:19:28.056Z,5.96
2023-05-04T03:20:28.055Z,6.08
2023-05-04T03:21:28.078Z,6.18
2023-05-04T03:22:28.014Z,6.22
2023-05-04T03:23:28.011Z,6.28
2023-05-04T03:24:28.012Z,6.33
2023-05-04T03:25:27.976Z,6.37
2023-05-04T03:26:27.969Z,6.41
2023-05-04T03:27:27.958Z,6.46
2023-05-04T03:28:27.942Z,6.44
2023-05-04T03:29:27.949Z,6.41
2023-05-04T03:30:27.954Z,6.38
2023-05-04T03:31:27.959Z,6.34
2023-05-04T03:32:27.927Z,6.34
2023-05-04T03:33:27.909Z,6.40
2023-05-04T03:34:27.926Z,6.43
2023-05-04T03:35:27.893Z,6.46
2023-05-04T03:36:27.856Z,6.46
2023-05-04T03:37:27.867Z,6.46
2023-05-04T03:38:27.844Z,6.52
2023-05-04T03:39:27.839Z,6.55
2023-05-04T03:40:27.814Z,6.59
2023-05-04T03:41:27.890Z,6.67
2023-05-04T03:42:27.794Z,6.69
2023-05-04T03:43:27.804Z,6.66
2023-05-04T03:44:27.802Z,6.64
2023-05-04T03:45:27.761Z,6.66
2023-05-04T03:46:27.789Z,6.71
2023-05-04T03:47:27.790Z,6.73
2023-05-04T03:48:27.770Z,6.76
2023-05-04T03:49:27.735Z,6.77
2023-05-04T03:50:27.716Z,6.76
2023-05-04T03:51:27.703Z,6.69
2023-05-04T03:52:27.704Z,6.67
2023-05-04T03:53:27.686Z,6.64
2023-05-04T03:54:27.664Z,6.62
2023-05-04T03:55:27.671Z,6.59
2023-05-04T03:56:27.690Z,6.52
2023-05-04T03:57:27.638Z,6.46
2023-05-04T03:58:27.629Z,6.40
2023-05-04T03:59:27.609Z,6.37
2023-05-04T04:00:27.580Z,6.33
2023-05-04T04:01:27.631Z,6.28
2023-05-04T04:02:27.679Z,6.22
2023-05-04T04:03:27.668Z,6.19
2023-05-04T04:04:27.658Z,6.18
2023-05-04T04:05:27.549Z,6.15
2023-05-04T04:06:27.548Z,6.14
2023-05-04T04:07:27.536Z,6.11
2023-05-04T04:08:27.526Z,6.11
2023-05-04T04:09:27.492Z,6.09
2023-05-04T04:10:27.512Z,6.09
2023-05-04T04:11:27.539Z,6.08
2023-05-04T04:12:27.493Z,6.06
2023-05-04T04:13:27.443Z,6.08
2023-05-04T04:14:27.459Z,6.06
2023-05-04T04:15:27.455Z,6.06
2023-05-04T04:16:27.536Z,6.04
2023-05-04T04:17:27.468Z,6.08
2023-05-04T04:18:27.399Z,6.09
2023-05-04T04:19:27.411Z,6.04
2023-05-04T04:20:27.381Z,6.03
2023-05-04T04:21:27.364Z,6.04
2023-05-04T04:22:27.376Z,6.03
2023-05-04T04:23:27.363Z,6.04
2023-05-04T04:24:27.334Z,6.06
2023-05-04T04:25:27.361Z,6.08
2023-05-04T04:26:27.423Z,6.08
2023-05-04T04:27:27.313Z,6.14
2023-05-04T04:28:27.307Z,6.14
2023-05-04T04:29:27.286Z,6.11
2023-05-04T04:30:27.266Z,6.09
2023-05-04T04:31:27.377Z,6.09
2023-05-04T04:32:27.287Z,6.11
2023-05-04T04:33:27.248Z,6.09
2023-05-04T04:34:27.230Z,6.06
2023-05-04T04:35:27.240Z,6.11
2023-05-04T04:36:27.207Z,6.11
2023-05-04T04:37:27.187Z,6.11
2023-05-04T04:38:27.202Z,6.12
2023-05-04T04:39:27.193Z,6.11
2023-05-04T04:40:27.179Z,6.11
2023-05-04T04:41:27.145Z,6.11
2023-05-04T04:42:27.131Z,6.11
2023-05-04T04:43:27.183Z,6.12
2023-05-04T04:44:27.112Z,6.14
2023-05-04T04:45:27.100Z,6.17
2023-05-04T04:46:27.124Z,6.17
2023-05-04T04:47:27.136Z,6.19
2023-05-04T04:48:27.111Z,6.25
2023-05-04T04:49:27.050Z,6.22
2023-05-04T04:50:27.049Z,6.27
2023-05-04T04:51:27.027Z,6.30
2023-05-04T04:52:27.030Z,6.31
2023-05-04T04:53:27.027Z,6.31
2023-05-04T04:54:27.006Z,6.37
2023-05-04T04:55:26.988Z,6.37
2023-05-04T04:56:27.087Z,6.40
2023-05-04T04:57:26.983Z,6.46
2023-05-04T04:58:27.049Z,6.48
2023-05-04T04:59:26.978Z,6.51
2023-05-04T05:00:26.948Z,6.61
2023-05-04T05:01:26.957Z,6.81
2023-05-04T05:02:26.950Z,6.89
2023-05-04T05:03:26.940Z,6.89
2023-05-04T05:04:27.008Z,6.91
2023-05-04T05:05:26.882Z,6.88
2023-05-04T05:06:26.893Z,6.88
2023-05-04T05:07:26.881Z,6.91
2023-05-04T05:08:26.864Z,6.98
2023-05-04T05:09:26.845Z,7.02
2023-05-04T05:10:26.854Z,6.99
2023-05-04T05:11:26.869Z,6.99
2023-05-04T05:12:26.816Z,7.02
2023-05-04T05:13:27.156Z,7.03
2023-05-04T05:14:26.793Z,7.03
2023-05-04T05:15:26.792Z,7.05
2023-05-04T05:16:26.787Z,7.10
2023-05-04T05:17:26.815Z,7.10
2023-05-04T05:18:26.754Z,7.10
2023-05-04T05:19:26.738Z,7.25
2023-05-04T05:20:26.718Z,7.37
2023-05-04T05:21:26.745Z,7.42
2023-05-04T05:22:26.711Z,7.52
2023-05-04T05:23:26.697Z,7.58
2023-05-04T05:24:26.687Z,7.63
2023-05-04T05:25:26.677Z,7.71
2023-05-04T05:26:26.663Z,7.74
2023-05-04T05:27:26.647Z,7.82
2023-05-04T05:28:26.685Z,7.92
2023-05-04T05:29:26.626Z,8.00
2023-05-04T05:30:26.612Z,8.07
2023-05-04T05:31:26.739Z,8.05
2023-05-04T05:32:26.616Z,8.10
2023-05-04T05:33:26.605Z,8.16
2023-05-04T05:34:26.604Z,8.18
2023-05-04T05:35:26.566Z,8.19
2023-05-04T05:36:26.539Z,8.26
2023-05-04T05:37:26.538Z,8.29
2023-05-04T05:38:26.534Z,8.34
2023-05-04T05:39:26.511Z,8.38
2023-05-04T05:40:26.541Z,8.43
2023-05-04T05:41:26.488Z,8.52
2023-05-04T05:42:26.524Z,8.59
2023-05-04T05:43:26.517Z,8.71
2023-05-04T05:44:26.506Z,8.76
2023-05-04T05:45:26.497Z,8.87
2023-05-04T05:46:26.524Z,8.98
2023-05-04T05:47:26.472Z,9.05
2023-05-04T05:48:26.458Z,9.17
2023-05-04T05:49:26.446Z,9.26
2023-05-04T05:50:26.432Z,9.36
2023-05-04T05:51:26.415Z,9.43
2023-05-04T05:52:26.413Z,9.57
2023-05-04T05:53:26.413Z,9.65
2023-05-04T05:54:26.397Z,9.72
2023-05-04T05:55:26.366Z,9.81
2023-05-04T05:56:26.355Z,9.93
2023-05-04T05:57:26.608Z,10.08
2023-05-04T05:58:26.308Z,10.22
2023-05-04T05:59:26.316Z,10.30
2023-05-04T06:00:26.273Z,10.32
2023-05-04T06:01:26.282Z,10.38
2023-05-04T06:02:26.380Z,10.34
2023-05-04T06:03:26.416Z,10.36
2023-05-04T06:04:26.308Z,10.40
2023-05-04T06:05:26.250Z,10.42
2023-05-04T06:06:26.209Z,10.38
2023-05-04T06:07:26.211Z,10.36
2023-05-04T06:08:26.361Z,10.41
2023-05-04T06:09:26.209Z,10.40
2023-05-04T06:10:26.184Z,10.40
2023-05-04T06:11:26.173Z,10.38
2023-05-04T06:12:26.142Z,10.36
2023-05-04T06:13:26.390Z,10.34
2023-05-04T06:14:26.126Z,10.38
2023-05-04T06:15:26.116Z,10.36
2023-05-04T06:16:26.150Z,10.41
2023-05-04T06:17:26.134Z,10.45
2023-05-04T06:18:26.128Z,10.51
2023-05-04T06:19:26.071Z,10.56
2023-05-04T06:20:26.056Z,10.61
2023-05-04T06:21:26.062Z,10.67
2023-05-04T06:22:26.041Z,10.73
2023-05-04T06:23:26.049Z,10.76
2023-05-04T06:24:26.008Z,10.76
2023-05-04T06:25:26.018Z,10.79
2023-05-04T06:26:26.031Z,10.82
2023-05-04T06:27:25.992Z,10.88
2023-05-04T06:28:26.013Z,10.96
2023-05-04T06:29:25.991Z,11.15
2023-05-04T06:30:25.955Z,11.35
2023-05-04T06:31:25.988Z,11.36
2023-05-04T06:32:25.992Z,11.40
2023-05-04T06:33:25.949Z,11.51
2023-05-04T06:34:25.908Z,11.54
2023-05-04T06:35:25.988Z,11.64
2023-05-04T06:36:25.872Z,11.76
2023-05-04T06:37:25.897Z,11.91
2023-05-04T06:38:25.872Z,11.98
2023-05-04T06:39:25.880Z,11.91
2023-05-04T06:40:25.885Z,11.90
2023-05-04T06:41:25.889Z,11.79
2023-05-04T06:42:25.831Z,11.79
2023-05-04T06:43:25.821Z,11.94
2023-05-04T06:44:25.816Z,12.09
2023-05-04T06:45:25.824Z,12.20
2023-05-04T06:46:25.813Z,12.34
2023-05-04T06:47:25.860Z,12.46
2023-05-04T06:48:25.799Z,12.53
2023-05-04T06:49:25.737Z,12.56
2023-05-04T06:50:25.730Z,12.70
2023-05-04T06:51:25.710Z,12.72
2023-05-04T06:52:25.703Z,12.85
2023-05-04T06:53:25.720Z,12.83
2023-05-04T06:54:25.680Z,12.89
2023-05-04T06:55:25.676Z,13.04
2023-05-04T06:56:25.654Z,13.14
2023-05-04T06:57:25.673Z,12.96
2023-05-04T06:58:25.645Z,12.82
2023-05-04T06:59:25.633Z,12.86
2023-05-04T07:00:25.624Z,12.86
2023-05-04T07:01:25.650Z,12.72
2023-05-04T07:02:25.889Z,12.83
2023-05-04T07:03:25.673Z,13.00
2023-05-04T07:04:25.584Z,12.96
2023-05-04T07:05:25.689Z,13.10
2023-05-04T07:06:25.561Z,13.07
2023-05-04T07:07:25.550Z,13.01
2023-05-04T07:08:25.544Z,12.85
2023-05-04T07:09:25.534Z,13.00
2023-05-04T07:10:25.511Z,13.03
2023-05-04T07:11:25.492Z,12.96
2023-05-04T07:12:25.531Z,13.08
2023-05-04T07:13:25.513Z,13.26
2023-05-04T07:14:25.459Z,13.42
2023-05-04T07:15:25.439Z,13.52
2023-05-04T07:16:25.447Z,13.44
2023-05-04T07:17:25.701Z,13.38
2023-05-04T07:18:25.430Z,13.49
2023-05-04T07:19:25.410Z,13.60
2023-05-04T07:20:26.235Z,13.81
2023-05-04T07:21:28.962Z,13.95
2023-05-04T07:22:25.387Z,14.07
2023-05-04T07:23:25.375Z,13.99
2023-05-04T07:24:25.348Z,14.12
2023-05-04T07:25:25.350Z,14.20
2023-05-04T07:26:25.431Z,13.97
2023-05-04T07:27:25.305Z,13.99
2023-05-04T07:28:25.655Z,14.20
2023-05-04T07:29:25.304Z,14.37
2023-05-04T07:30:25.309Z,14.45
2023-05-04T07:31:25.442Z,14.42
2023-05-04T07:32:25.421Z,14.47
2023-05-04T07:33:25.293Z,14.57
2023-05-04T07:34:37.859Z,14.64
2023-05-04T07:35:26.226Z,14.64
2023-05-04T07:36:25.234Z,14.62
2023-05-04T07:37:25.207Z,14.61
2023-05-04T07:38:25.219Z,14.65
2023-05-04T07:39:25.173Z,14.69
2023-05-04T07:40:25.276Z,14.78
2023-05-04T07:41:25.153Z,14.88
2023-05-04T07:42:25.214Z,14.92
2023-05-04T07:43:25.167Z,15.01
2023-05-04T07:44:25.166Z,14.99
2023-05-04T07:45:25.152Z,15.06
2023-05-04T07:46:25.164Z,15.14
2023-05-04T07:47:25.137Z,14.88
2023-05-04T07:48:26.681Z,14.98
2023-05-04T07:49:25.072Z,15.17
2023-05-04T07:50:25.082Z,15.31
2023-05-04T07:51:25.073Z,15.43
2023-05-04T07:52:25.041Z,15.51
2023-05-04T07:53:25.156Z,15.57
2023-05-04T07:54:25.031Z,15.59
2023-05-04T07:55:25.022Z,15.68
2023-05-04T07:56:25.082Z,15.82
2023-05-04T07:57:24.981Z,16.00
2023-05-04T07:58:25.013Z,16.01
2023-05-04T07:59:24.987Z,16.08
2023-05-04T08:00:24.985Z,16.20
2023-05-04T08:01:24.940Z,16.24
2023-05-04T08:02:25.043Z,16.27
2023-05-04T08:03:24.977Z,16.30
2023-05-04T08:04:24.913Z,16.30
2023-05-04T08:05:24.900Z,16.30
2023-05-04T08:06:24.913Z,16.31
2023-05-04T08:07:24.877Z,16.30
2023-05-04T08:08:25.041Z,16.39
2023-05-04T08:09:24.952Z,16.60
2023-05-04T08:10:24.886Z,16.71
2023-05-04T08:11:24.830Z,16.76
2023-05-04T08:12:24.825Z,16.82
2023-05-04T08:13:24.820Z,16.78
2023-05-04T08:14:24.806Z,16.86
2023-05-04T08:15:24.794Z,17.01
2023-05-04T08:16:24.782Z,17.16
2023-05-04T08:17:24.795Z,17.21
2023-05-04T08:18:24.778Z,17.28
2023-05-04T08:19:24.746Z,17.26
2023-05-04T08:20:24.738Z,17.14
2023-05-04T08:21:24.718Z,17.25
2023-05-04T08:22:24.726Z,17.31
2023-05-04T08:23:24.720Z,17.43
2023-05-04T08:24:24.698Z,17.46
2023-05-04T08:25:24.757Z,17.46
2023-05-04T08:26:24.680Z,17.56
2023-05-04T08:27:24.667Z,17.64
2023-05-04T08:28:24.677Z,17.74
2023-05-04T08:29:24.658Z,17.86
2023-05-04T08:30:24.649Z,17.97
2023-05-04T08:31:24.703Z,18.00
2023-05-04T08:32:24.642Z,17.99
2023-05-04T08:33:24.661Z,17.90
2023-05-04T08:34:24.598Z,17.84
2023-05-04T08:35:24.627Z,17.92
2023-05-04T08:36:24.571Z,18.02
2023-05-04T08:37:24.568Z,18.17
2023-05-04T08:38:24.599Z,18.20
2023-05-04T08:39:24.545Z,18.29
2023-05-04T08:40:24.537Z,18.37
2023-05-04T08:41:24.557Z,18.44
2023-05-04T08:42:24.517Z,18.52
2023-05-04T08:43:24.571Z,18.52
2023-05-04T08:44:24.492Z,18.55
2023-05-04T08:45:24.492Z,18.62
2023-05-04T08:46:24.501Z,18.52
2023-05-04T08:47:24.504Z,18.44
2023-05-04T08:48:24.451Z,18.44
2023-05-04T08:49:24.438Z,18.35
2023-05-04T08:50:24.522Z,18.39
2023-05-04T08:51:24.415Z,18.63
2023-05-04T08:52:24.413Z,18.76
2023-05-04T08:53:24.404Z,18.75
2023-05-04T08:54:24.383Z,18.58
2023-05-04T08:55:24.492Z,18.50
2023-05-04T08:56:24.376Z,18.62
2023-05-04T08:57:24.394Z,18.70
2023-05-04T08:58:24.352Z,18.80
2023-05-04T08:59:24.341Z,18.92
2023-05-04T09:00:24.402Z,19.06
2023-05-04T09:01:24.366Z,19.14
2023-05-04T09:02:24.371Z,19.32
2023-05-04T09:03:24.415Z,19.47
2023-05-04T09:04:24.553Z,19.62
2023-05-04T09:05:24.277Z,19.73
2023-05-04T09:06:24.260Z,19.62
2023-05-04T09:07:24.257Z,19.43
2023-05-04T09:08:24.244Z,19.19
2023-05-04T09:09:24.221Z,19.39
2023-05-04T09:10:24.226Z,19.59
2023-05-04T09:11:24.213Z,19.58
2023-05-04T09:12:24.195Z,19.39
2023-05-04T09:13:24.417Z,19.39
2023-05-04T09:14:24.187Z,19.47
2023-05-04T09:15:24.180Z,19.71
2023-05-04T09:16:24.257Z,19.61
2023-05-04T09:17:24.158Z,19.73
2023-05-04T09:18:24.166Z,19.83
2023-05-04T09:19:24.122Z,19.83
2023-05-04T09:20:24.127Z,19.91
2023-05-04T09:21:24.102Z,20.13
2023-05-04T09:22:24.098Z,19.78
2023-05-04T09:23:24.099Z,19.68
2023-05-04T09:24:24.066Z,19.44
2023-05-04T09:25:24.126Z,19.61
2023-05-04T09:26:24.073Z,19.44
2023-05-04T09:27:24.051Z,19.43
2023-05-04T09:28:24.046Z,19.43
2023-05-04T09:29:24.023Z,19.43
2023-05-04T09:30:24.084Z,19.69
2023-05-04T09:31:24.210Z,19.74
2023-05-04T09:32:24.061Z,19.68
2023-05-04T09:33:24.010Z,19.68
2023-05-04T09:34:24.114Z,19.76
2023-05-04T09:35:32.494Z,19.98
2023-05-04T09:36:24.974Z,19.96
2023-05-04T09:37:24.123Z,19.83
2023-05-04T09:38:24.191Z,19.88
2023-05-04T09:39:23.974Z,19.99
2023-05-04T09:40:23.927Z,19.87
2023-05-04T09:41:23.951Z,19.94
2023-05-04T09:42:24.013Z,19.74
2023-05-04T09:43:23.907Z,19.91
2023-05-04T09:44:23.862Z,19.96
2023-05-04T09:45:23.863Z,20.11
2023-05-04T09:46:23.872Z,20.24
2023-05-04T09:47:23.856Z,20.29
2023-05-04T09:48:23.851Z,20.35
2023-05-04T09:49:23.815Z,20.36
2023-05-04T09:50:23.816Z,20.31
2023-05-04T09:51:23.798Z,20.28
2023-05-04T09:52:23.803Z,20.26
2023-05-04T09:53:23.783Z,20.21
2023-05-04T09:54:23.752Z,20.50
2023-05-04T09:55:23.759Z,20.69
2023-05-04T09:56:23.740Z,20.89
2023-05-04T09:57:23.762Z,21.04
2023-05-04T09:58:23.734Z,20.89
2023-05-04T09:59:23.720Z,20.67
2023-05-04T10:00:23.702Z,20.58
2023-05-04T10:01:23.764Z,20.58
2023-05-04T10:02:23.758Z,20.64
2023-05-04T10:03:23.746Z,20.62
2023-05-04T10:04:23.657Z,20.82
2023-05-04T10:05:23.696Z,20.69
2023-05-04T10:06:23.628Z,20.73
2023-05-04T10:07:23.657Z,20.67
2023-05-04T10:08:23.636Z,20.69
2023-05-04T10:09:23.608Z,20.84
2023-05-04T10:10:23.606Z,20.70
2023-05-04T10:11:23.584Z,20.67
2023-05-04T10:12:23.580Z,20.82
2023-05-04T10:13:23.586Z,20.77
2023-05-04T10:14:23.614Z,20.80
2023-05-04T10:15:23.543Z,20.72
2023-05-04T10:16:23.543Z,20.98
2023-05-04T10:17:23.659Z,21.07
2023-05-04T10:18:23.525Z,21.28
2023-05-04T10:19:23.578Z,21.10
2023-05-04T10:20:23.497Z,21.35
2023-05-04T10:21:23.481Z,21.53
2023-05-04T10:22:23.469Z,21.59
2023-05-04T10:23:24.057Z,21.59
2023-05-04T10:24:23.459Z,21.56
2023-05-04T10:25:23.452Z,21.53
2023-05-04T10:26:23.458Z,21.72
2023-05-04T10:27:23.436Z,21.84
2023-05-04T10:28:23.459Z,21.86
2023-05-04T10:29:23.865Z,21.84
2023-05-04T10:30:23.413Z,21.74
2023-05-04T10:31:23.450Z,21.86
2023-05-04T10:32:23.433Z,21.84
2023-05-04T10:33:23.454Z,21.94
2023-05-04T10:34:23.353Z,22.07
2023-05-04T10:35:23.362Z,22.03
2023-05-04T10:36:23.366Z,22.05
2023-05-04T10:37:23.333Z,21.96
2023-05-04T10:38:23.316Z,22.06
2023-05-04T10:39:23.296Z,21.92
2023-05-04T10:40:23.297Z,21.83
2023-05-04T10:41:23.307Z,22.00
2023-05-04T10:42:23.281Z,21.94
2023-05-04T10:43:23.274Z,21.69
2023-05-04T10:44:23.273Z,21.59
2023-05-04T10:45:23.263Z,21.69
2023-05-04T10:46:23.254Z,21.99
2023-05-04T10:47:23.231Z,21.82
2023-05-04T10:48:23.374Z,21.79
2023-05-04T10:49:23.476Z,22.03
2023-05-04T10:50:23.202Z,22.14
2023-05-04T10:51:24.325Z,22.30
2023-05-04T10:52:23.562Z,22.28
2023-05-04T10:53:23.273Z,21.96
2023-05-04T10:54:23.250Z,21.94
2023-05-04T10:55:23.159Z,22.03
2023-05-04T10:56:23.865Z,22.06
2023-05-04T10:57:23.158Z,22.00
2023-05-04T10:58:23.125Z,22.30
2023-05-04T10:59:23.117Z,22.64
2023-05-04T11:00:23.107Z,22.73
2023-05-04T11:01:23.140Z,22.33
2023-05-04T11:02:23.143Z,22.18
2023-05-04T11:03:23.130Z,22.21
2023-05-04T11:04:23.067Z,22.22
2023-05-04T11:05:23.066Z,22.37
2023-05-04T11:06:24.020Z,22.40
2023-05-04T11:07:23.031Z,22.36
2023-05-04T11:08:23.049Z,22.62
2023-05-04T11:09:23.001Z,22.70
2023-05-04T11:10:23.012Z,22.76
2023-05-04T11:11:22.990Z,22.54
2023-05-04T11:12:22.980Z,22.49
2023-05-04T11:13:23.038Z,22.47
2023-05-04T11:14:22.959Z,22.61
2023-05-04T11:15:22.957Z,22.68
2023-05-04T11:16:22.951Z,22.82
2023-05-04T11:17:28.158Z,22.76
2023-05-04T11:18:23.958Z,22.92
2023-05-04T11:19:22.917Z,22.73
2023-05-04T11:20:22.947Z,22.73
2023-05-04T11:21:22.895Z,22.83
2023-05-04T11:22:22.958Z,22.90
2023-05-04T11:23:22.873Z,22.72
2023-05-04T11:24:22.868Z,22.54
2023-05-04T11:25:22.886Z,22.70
2023-05-04T11:26:22.851Z,22.95
2023-05-04T11:27:22.849Z,22.85
2023-05-04T11:28:22.825Z,22.65
2023-05-04T11:29:22.836Z,22.57
2023-05-04T11:30:22.812Z,22.57
2023-05-04T11:31:22.828Z,22.58
2023-05-04T11:32:22.857Z,22.82
2023-05-04T11:33:22.818Z,22.65
2023-05-04T11:34:22.767Z,22.60
2023-05-04T11:35:22.786Z,22.52
2023-05-04T11:36:22.900Z,22.54
2023-05-04T11:37:22.742Z,22.43
2023-05-04T11:38:22.763Z,22.52
2023-05-04T11:39:22.720Z,22.67
2023-05-04T11:40:22.701Z,22.80
2023-05-04T11:41:22.691Z,22.88
2023-05-04T11:42:22.712Z,22.98
2023-05-04T11:43:22.690Z,23.35
2023-05-04T11:44:22.719Z,23.05
2023-05-04T11:45:22.698Z,23.09
2023-05-04T11:46:22.710Z,23.15
2023-05-04T11:47:22.671Z,22.91
2023-05-04T11:48:22.697Z,23.10
2023-05-04T11:49:22.616Z,23.15
2023-05-04T11:50:22.613Z,23.23
2023-05-04T11:51:22.588Z,23.33
2023-05-04T11:52:22.623Z,23.63
2023-05-04T11:53:22.758Z,23.63
2023-05-04T11:54:22.565Z,23.73
2023-05-04T11:55:22.570Z,23.76
2023-05-04T11:56:22.720Z,23.68
2023-05-04T11:57:22.569Z,23.25
2023-05-04T11:58:22.556Z,23.22
2023-05-04T11:59:22.517Z,23.04
2023-05-04T12:00:22.507Z,22.98
2023-05-04T12:01:22.499Z,23.31
2023-05-04T12:02:22.671Z,23.32
2023-05-04T12:03:24.396Z,23.46
2023-05-04T12:04:22.508Z,23.78
2023-05-04T12:05:22.472Z,23.90
2023-05-04T12:06:22.459Z,23.90
2023-05-04T12:07:22.444Z,24.09
2023-05-04T12:08:22.595Z,24.00
2023-05-04T12:09:22.442Z,23.90
2023-05-04T12:10:22.410Z,24.12
2023-05-04T12:11:22.399Z,24.24
2023-05-04T12:12:22.397Z,24.52
2023-05-04T12:13:22.428Z,24.76
2023-05-04T12:14:22.378Z,24.64
2023-05-04T12:15:22.353Z,24.53
2023-05-04T12:16:22.422Z,24.42
2023-05-04T12:17:22.427Z,24.28
2023-05-04T12:18:22.732Z,24.24
2023-05-04T12:19:22.329Z,24.12
2023-05-04T12:20:22.316Z,24.15
2023-05-04T12:21:22.347Z,24.16
2023-05-04T12:22:22.292Z,24.16
2023-05-04T12:23:22.341Z,24.18
2023-05-04T12:24:22.273Z,24.20
2023-05-04T12:25:22.262Z,24.10
2023-05-04T12:26:22.285Z,24.13
2023-05-04T12:27:22.255Z,24.20
2023-05-04T12:28:22.247Z,24.30
2023-05-04T12:29:22.238Z,24.40
2023-05-04T12:30:22.216Z,24.45
2023-05-04T12:31:24.857Z,24.46
2023-05-04T12:32:22.223Z,24.53
2023-05-04T12:33:22.182Z,24.64
2023-05-04T12:34:22.176Z,24.71
2023-05-04T12:35:22.170Z,24.65
2023-05-04T12:36:22.168Z,24.67
2023-05-04T12:37:23.285Z,24.76
2023-05-04T12:38:22.147Z,24.69
2023-05-04T12:39:22.119Z,24.73
2023-05-04T12:41:23.164Z,24.77
2023-05-04T12:42:22.095Z,24.73
2023-05-04T12:43:22.097Z,24.62
2023-05-04T12:44:22.080Z,24.55
2023-05-04T12:45:22.061Z,24.25
2023-05-04T12:46:22.094Z,24.25
2023-05-04T12:47:22.113Z,24.46
2023-05-04T12:48:22.042Z,24.57
2023-05-04T12:49:23.450Z,24.68
2023-05-04T12:50:22.085Z,24.80
2023-05-04T12:51:22.010Z,24.76
2023-05-04T12:52:22.064Z,24.69
2023-05-04T12:53:21.984Z,24.73
2023-05-04T12:54:21.980Z,24.87
2023-05-04T12:55:24.679Z,24.98
2023-05-04T12:56:22.040Z,24.98
2023-05-04T12:57:21.960Z,24.84
2023-05-04T12:58:22.080Z,24.85
2023-05-04T12:59:21.942Z,24.81
2023-05-04T13:00:21.926Z,24.84
2023-05-04T13:01:21.984Z,24.71
2023-05-04T13:02:21.971Z,24.80
2023-05-04T13:03:22.001Z,24.90
2023-05-04T13:04:21.925Z,25.03
2023-05-04T13:05:21.924Z,25.17
2023-05-04T13:06:21.880Z,25.08